Time;durP1;ratioP1;P1;durP2;ratioP2;P2;SDS_P1;SDS_P2;PMS_P1;PMS_P2;Temp;Humidity;BMP_temperature;BMP_pressure;BME280_temperature;BME280_humidity;BME280_pressure;Samples;Min_cycle;Max_cycle;Signal;HPM_P1;HPM_P2
2022/09/27 04:31:34;;;;;;;;;1.33;0.00;;;;;;;;5461852;22;45174;-64
2022/09/27 04:34:00;;;;;;;;;1.33;1.00;;;;;;;;5044126;28;46064;-65
2022/09/27 04:36:26;;;;;;;;;2.00;2.00;;;;;;;;5043070;28;46061;-65
2022/09/27 04:38:55;;;;;;;;;1.67;1.00;;;;;;;;5042662;28;45486;-65
2022/09/27 04:41:22;;;;;;;;;1.00;1.00;;;;;;;;5040737;28;45455;-64
2022/09/27 04:43:47;;;;;;;;;1.00;1.00;;;;;;;;5063430;28;46173;-64
2022/09/27 04:46:12;;;;;;;;;2.00;0.67;;;;;;;;5061585;28;45212;-64
2022/09/27 04:48:38;;;;;;;;;1.33;1.33;;;;;;;;5063460;28;45475;-64
2022/09/27 04:51:03;;;;;;;;;0.00;0.00;;;;;;;;5057042;28;45237;-65
2022/09/27 04:53:28;;;;;;;;;5.67;1.00;;;;;;;;5063684;28;45558;-65
2022/09/27 04:55:54;;;;;;;;;4.00;1.00;;;;;;;;5060252;28;45447;-64
2022/09/27 04:58:20;;;;;;;;;1.00;1.00;;;;;;;;5053235;28;45230;-65
2022/09/27 05:00:45;;;;;;;;;3.00;1.00;;;;;;;;5046899;28;45486;-65
2022/09/27 05:03:10;;;;;;;;;1.67;1.67;;;;;;;;5054539;28;45444;-64
2022/09/27 05:05:36;;;;;;;;;1.00;1.00;;;;;;;;5069139;28;45365;-64
2022/09/27 05:08:01;;;;;;;;;2.33;1.00;;;;;;;;5062499;28;45427;-64
2022/09/27 05:10:26;;;;;;;;;1.00;1.00;;;;;;;;5074344;28;45297;-64
2022/09/27 05:12:51;;;;;;;;;2.67;1.00;;;;;;;;5061160;28;45508;-65
2022/09/27 05:15:17;;;;;;;;;1.00;1.00;;;;;;;;5067170;28;45686;-64
2022/09/27 05:17:42;;;;;;;;;3.00;1.00;;;;;;;;5056434;28;45267;-65
2022/09/27 05:20:09;;;;;;;;;2.00;2.00;;;;;;;;5059837;28;45523;-64
2022/09/27 05:22:34;;;;;;;;;3.33;2.00;;;;;;;;5055186;28;47017;-64
2022/09/27 05:24:59;;;;;;;;;1.00;1.00;;;;;;;;5057117;28;45780;-64
2022/09/27 05:27:25;;;;;;;;;3.67;1.33;;;;;;;;5060218;28;45341;-65
2022/09/27 05:29:50;;;;;;;;;3.00;1.00;;;;;;;;5068499;28;45291;-65
2022/09/27 05:32:15;;;;;;;;;2.00;2.00;;;;;;;;5071924;28;46812;-64
2022/09/27 05:34:40;;;;;;;;;2.00;1.00;;;;;;;;5057664;28;46661;-66
2022/09/27 05:37:06;;;;;;;;;5.00;2.00;;;;;;;;5058978;28;45401;-67
2022/09/27 05:39:31;;;;;;;;;1.00;1.00;;;;;;;;5059507;28;45287;-67
2022/09/27 05:41:56;;;;;;;;;3.00;2.00;;;;;;;;5059660;28;46116;-65
2022/09/27 05:44:22;;;;;;;;;2.00;2.00;;;;;;;;5059788;28;45239;-65
2022/09/27 05:46:47;;;;;;;;;4.33;1.00;;;;;;;;5041520;28;45554;-67
2022/09/27 05:49:12;;;;;;;;;4.00;1.00;;;;;;;;5059681;28;45267;-65
2022/09/27 05:51:37;;;;;;;;;1.00;1.00;;;;;;;;5058025;28;46069;-65
2022/09/27 05:54:02;;;;;;;;;1.00;1.00;;;;;;;;5053023;28;45364;-65
2022/09/27 05:56:28;;;;;;;;;3.33;3.00;;;;;;;;5059017;28;45190;-65
2022/09/27 05:58:53;;;;;;;;;4.33;2.00;;;;;;;;5059585;28;45590;-66
2022/09/27 06:01:18;;;;;;;;;3.33;1.00;;;;;;;;5058770;28;45454;-66
2022/09/27 06:03:44;;;;;;;;;1.33;1.33;;;;;;;;5059110;28;45418;-66
2022/09/27 06:06:10;;;;;;;;;5.67;2.00;;;;;;;;5062997;28;45759;-66
2022/09/27 06:08:36;;;;;;;;;4.00;3.00;;;;;;;;5066662;28;45338;-65
2022/09/27 06:11:05;;;;;;;;;3.00;3.00;;;;;;;;5066334;28;46096;-66
2022/09/27 06:13:32;;;;;;;;;4.00;3.00;;;;;;;;5060359;28;45358;-66
2022/09/27 06:15:58;;;;;;;;;2.00;2.00;;;;;;;;5059391;28;45722;-65
2022/09/27 06:18:23;;;;;;;;;5.00;3.00;;;;;;;;5058295;28;45230;-66
2022/09/27 06:20:48;;;;;;;;;2.00;2.00;;;;;;;;5055606;28;45618;-69
2022/09/27 06:23:15;;;;;;;;;3.00;3.00;;;;;;;;5063954;28;45392;-69
2022/09/27 06:25:40;;;;;;;;;2.00;2.00;;;;;;;;5061355;28;45456;-65
2022/09/27 06:28:05;;;;;;;;;2.00;1.00;;;;;;;;5062280;28;45481;-64
2022/09/27 06:30:31;;;;;;;;;2.67;1.00;;;;;;;;5058460;28;46107;-66
2022/09/27 06:33:00;;;;;;;;;5.67;3.00;;;;;;;;5058484;28;45355;-64
2022/09/27 06:35:26;;;;;;;;;1.33;1.33;;;;;;;;5053071;28;45544;-64
2022/09/27 06:37:51;;;;;;;;;6.33;3.00;;;;;;;;5033281;28;45383;-63
2022/09/27 06:40:17;;;;;;;;;2.00;2.00;;;;;;;;5052370;28;46422;-65
2022/09/27 06:42:42;;;;;;;;;5.67;1.33;;;;;;;;5050125;28;45483;-65
2022/09/27 06:45:08;;;;;;;;;3.00;1.67;;;;;;;;5059493;28;45377;-66
2022/09/27 06:47:36;;;;;;;;;3.00;2.00;;;;;;;;5056215;28;45424;-66
2022/09/27 06:50:04;;;;;;;;;3.00;2.00;;;;;;;;5055682;28;46233;-64
2022/09/27 06:52:30;;;;;;;;;0.00;0.00;;;;;;;;5054332;28;45498;-65
2022/09/27 06:54:55;;;;;;;;;3.00;1.33;;;;;;;;5066299;28;45330;-64
2022/09/27 07:00:22;;;;;;;;;3.00;3.00;;;;;;;;5065507;28;45326;-65
2022/09/27 07:00:25;;;;;;;;;1.33;1.33;;;;;;;;5059034;28;45955;-65
2022/09/27 07:02:50;;;;;;;;;2.00;1.00;;;;;;;;5053348;28;45387;-64
2022/09/27 07:05:16;;;;;;;;;3.00;1.33;;;;;;;;5052767;28;46659;-64
2022/09/27 07:07:42;;;;;;;;;2.67;2.67;;;;;;;;5050004;28;45548;-64
2022/09/27 07:10:08;;;;;;;;;3.67;2.00;;;;;;;;5055633;28;47094;-64
2022/09/27 07:12:34;;;;;;;;;4.00;4.00;;;;;;;;5058717;28;45212;-64
2022/09/27 07:15:00;;;;;;;;;2.33;1.00;;;;;;;;5059084;28;45287;-64
2022/09/27 07:17:26;;;;;;;;;6.00;2.67;;;;;;;;5058249;28;45588;-64
2022/09/27 07:19:51;;;;;;;;;3.00;3.00;;;;;;;;5058613;28;46275;-64
2022/09/27 07:22:17;;;;;;;;;6.33;2.00;;;;;;;;5054638;28;45366;-64
2022/09/27 07:24:42;;;;;;;;;3.00;2.00;;;;;;;;5058749;28;45395;-64
2022/09/27 07:27:07;;;;;;;;;4.00;1.00;;;;;;;;5059623;28;45530;-65
2022/09/27 07:29:32;;;;;;;;;3.67;1.00;;;;;;;;5054052;28;45445;-65
2022/09/27 07:31:57;;;;;;;;;3.00;3.00;;;;;;;;5058511;28;45573;-64
2022/09/27 07:34:23;;;;;;;;;2.00;2.00;;;;;;;;5057602;28;45276;-65
2022/09/27 07:36:48;;;;;;;;;3.00;1.67;;;;;;;;5055075;28;45361;-64
2022/09/27 07:39:13;;;;;;;;;1.00;1.00;;;;;;;;5056230;28;45401;-65
2022/09/27 07:41:39;;;;;;;;;2.67;1.00;;;;;;;;5057727;28;45414;-65
2022/09/27 07:44:04;;;;;;;;;1.00;1.00;;;;;;;;5058862;28;45367;-65
2022/09/27 07:46:29;;;;;;;;;2.00;2.00;;;;;;;;5061244;28;45811;-64
2022/09/27 07:48:55;;;;;;;;;2.67;2.67;;;;;;;;5064453;28;46144;-63
2022/09/27 07:51:20;;;;;;;;;2.00;2.00;;;;;;;;5056648;28;45457;-64
2022/09/27 07:53:45;;;;;;;;;2.00;2.00;;;;;;;;5048353;28;45437;-64
2022/09/27 07:56:10;;;;;;;;;4.33;2.00;;;;;;;;5057978;28;45481;-65
2022/09/27 07:58:35;;;;;;;;;1.67;1.00;;;;;;;;5056170;28;45547;-64
2022/09/27 08:01:01;;;;;;;;;3.33;1.00;;;;;;;;5047189;28;45619;-65
2022/09/27 08:03:27;;;;;;;;;3.67;1.33;;;;;;;;5056908;28;45414;-64
2022/09/27 08:05:52;;;;;;;;;0.33;0.33;;;;;;;;5056562;28;45414;-64
2022/09/27 08:08:17;;;;;;;;;2.00;1.67;;;;;;;;5067129;28;46270;-64
2022/09/27 08:10:46;;;;;;;;;2.00;1.00;;;;;;;;5072050;28;45275;-65
2022/09/27 08:13:11;;;;;;;;;3.33;1.33;;;;;;;;5071447;28;45389;-64
2022/09/27 08:15:37;;;;;;;;;2.33;2.33;;;;;;;;5053129;28;45359;-64
2022/09/27 08:18:03;;;;;;;;;1.00;1.00;;;;;;;;5071320;28;46910;-65
2022/09/27 08:20:28;;;;;;;;;3.00;2.00;;;;;;;;5062926;28;45342;-65
2022/09/27 08:22:54;;;;;;;;;2.00;2.00;;;;;;;;5056276;28;45276;-65
2022/09/27 08:25:23;;;;;;;;;4.33;1.67;;;;;;;;5055771;28;45252;-65
2022/09/27 08:27:55;;;;;;;;;2.00;1.33;;;;;;;;5055703;28;46072;-65
2022/09/27 08:30:20;;;;;;;;;4.00;3.00;;;;;;;;5051107;28;45438;-64
2022/09/27 08:32:45;;;;;;;;;0.67;0.67;;;;;;;;5053339;28;45437;-65
2022/09/27 08:35:14;;;;;;;;;1.00;1.00;;;;;;;;5056482;28;45821;-65
2022/09/27 08:37:39;;;;;;;;;1.33;1.33;;;;;;;;5049367;28;46433;-65
2022/09/27 08:40:05;;;;;;;;;2.33;0.67;;;;;;;;5054522;28;45420;-65
2022/09/27 08:42:38;;;;;;;;;0.00;0.00;;;;;;;;5055567;28;45592;-65
2022/09/27 08:45:04;;;;;;;;;0.67;0.67;;;;;;;;5056342;28;45367;-64
2022/09/27 08:47:34;;;;;;;;;1.00;1.00;;;;;;;;5056330;28;45329;-64
2022/09/27 08:50:19;;;;;;;;;0.67;0.67;;;;;;;;5057373;28;45539;-64
2022/09/27 08:52:47;;;;;;;;;5.00;1.00;;;;;;;;5055162;28;45418;-64
2022/09/27 08:55:19;;;;;;;;;3.67;1.33;;;;;;;;5059724;28;45384;-64
2022/09/27 08:57:49;;;;;;;;;3.00;1.00;;;;;;;;5058379;28;46203;-65
2022/09/27 09:00:14;;;;;;;;;4.33;3.00;;;;;;;;5059740;28;45491;-65
2022/09/27 09:02:40;;;;;;;;;2.67;2.67;;;;;;;;5059501;28;45347;-65
2022/09/27 09:05:08;;;;;;;;;5.33;4.33;;;;;;;;5059653;28;45750;-65
2022/09/27 09:07:34;;;;;;;;;2.67;2.67;;;;;;;;5056077;28;46136;-65
2022/09/27 09:12:45;;;;;;;;;1.67;1.67;;;;;;;;5051146;28;45440;-66
2022/09/27 09:13:04;;;;;;;;;2.00;2.00;;;;;;;;5059233;28;45408;-65
2022/09/27 09:15:32;;;;;;;;;1.33;1.33;;;;;;;;5057494;28;46132;-64
2022/09/27 09:18:12;;;;;;;;;0.67;0.67;;;;;;;;5060041;28;45361;-65
2022/09/27 09:20:46;;;;;;;;;1.33;1.33;;;;;;;;5060034;28;45371;-64
2022/09/27 09:23:20;;;;;;;;;0.67;0.67;;;;;;;;5055582;28;45504;-64
2022/09/27 09:25:55;;;;;;;;;3.00;0.67;;;;;;;;5058730;28;46367;-64
2022/09/27 09:28:38;;;;;;;;;2.00;0.33;;;;;;;;5059482;28;46114;-65
2022/09/27 09:31:03;;;;;;;;;1.67;1.67;;;;;;;;5040368;28;45500;-65
2022/09/27 09:33:31;;;;;;;;;2.67;1.67;;;;;;;;5049250;28;45762;-64
2022/09/27 09:36:12;;;;;;;;;4.67;2.00;;;;;;;;5055098;28;45517;-65
2022/09/27 09:38:41;;;;;;;;;0.00;0.00;;;;;;;;5049282;28;46315;-64
2022/09/27 09:41:14;;;;;;;;;2.00;1.00;;;;;;;;5052672;28;45533;-64
2022/09/27 09:43:43;;;;;;;;;1.67;1.00;;;;;;;;5058627;28;45428;-64
2022/09/27 09:46:26;;;;;;;;;1.00;0.00;;;;;;;;5059095;28;45497;-65
2022/09/27 09:49:03;;;;;;;;;1.25;0.75;;;;;;;;5058782;28;47126;-65
2022/09/27 09:51:34;;;;;;;;;2.25;0.75;;;;;;;;5058825;28;45374;-65
2022/09/27 09:54:03;;;;;;;;;0.25;0.25;;;;;;;;5058779;28;45473;-65
2022/09/27 09:56:31;;;;;;;;;0.00;0.00;;;;;;;;5058440;28;45464;-65
2022/09/27 09:59:01;;;;;;;;;1.00;0.00;;;;;;;;5059199;28;46288;-65
2022/09/27 10:01:26;;;;;;;;;1.00;1.00;;;;;;;;5044255;28;45477;-64
2022/09/27 10:03:52;;;;;;;;;0.25;0.25;;;;;;;;5071093;28;45272;-65
2022/09/27 10:06:18;;;;;;;;;0.00;0.00;;;;;;;;5068226;28;45643;-66
2022/09/27 10:08:43;;;;;;;;;0.75;0.50;;;;;;;;5060242;28;46172;-66
2022/09/27 10:11:18;;;;;;;;;2.00;1.25;;;;;;;;5066539;28;45364;-66
2022/09/27 10:13:43;;;;;;;;;2.00;1.00;;;;;;;;5072023;28;45367;-66
2022/09/27 10:16:09;;;;;;;;;0.00;0.00;;;;;;;;5076566;28;45589;-65
2022/09/27 10:18:40;;;;;;;;;2.00;0.00;;;;;;;;5069654;28;46124;-65
2022/09/27 10:21:10;;;;;;;;;3.50;0.00;;;;;;;;5055153;28;45232;-65
2022/09/27 10:23:42;;;;;;;;;0.00;0.00;;;;;;;;5058774;28;45389;-66
2022/09/27 10:26:09;;;;;;;;;3.00;1.00;;;;;;;;5053541;28;45424;-66
2022/09/27 10:28:37;;;;;;;;;0.00;0.00;;;;;;;;5048439;28;46207;-66
2022/09/27 10:31:06;;;;;;;;;0.00;0.00;;;;;;;;5054479;28;45446;-67
2022/09/27 10:33:33;;;;;;;;;1.00;1.00;;;;;;;;5053449;28;45504;-67
2022/09/27 10:35:59;;;;;;;;;1.00;1.00;;;;;;;;5057530;28;45475;-66
2022/09/27 10:38:32;;;;;;;;;0.00;0.00;;;;;;;;5056704;28;46321;-66
2022/09/27 10:41:14;;;;;;;;;0.00;0.00;;;;;;;;5053115;28;45498;-65
2022/09/27 10:43:39;;;;;;;;;1.33;0.33;;;;;;;;5051052;28;45338;-66
2022/09/27 10:46:07;;;;;;;;;0.00;0.00;;;;;;;;5051681;28;45844;-64
2022/09/27 10:48:32;;;;;;;;;4.67;2.00;;;;;;;;5051858;28;46231;-65
2022/09/27 10:51:03;;;;;;;;;1.00;1.00;;;;;;;;5050891;28;45295;-65
2022/09/27 10:53:28;;;;;;;;;1.33;1.00;;;;;;;;5056091;28;45529;-65
2022/09/27 10:55:54;;;;;;;;;3.00;3.00;;;;;;;;5052446;28;45417;-66
2022/09/27 10:58:29;;;;;;;;;3.00;2.67;;;;;;;;5056910;28;46288;-65
2022/09/27 11:00:56;;;;;;;;;2.00;2.00;;;;;;;;5055967;28;45213;-65
2022/09/27 11:03:24;;;;;;;;;1.00;1.00;;;;;;;;5054517;28;45638;-65
2022/09/27 11:05:49;;;;;;;;;2.00;1.00;;;;;;;;5062963;28;45437;-65
2022/09/27 11:08:17;;;;;;;;;4.33;1.00;;;;;;;;5062442;28;46347;-67
2022/09/27 11:10:43;;;;;;;;;2.33;2.00;;;;;;;;5047593;28;45773;-66
2022/09/27 11:13:18;;;;;;;;;4.33;4.00;;;;;;;;5061724;28;45687;-66
2022/09/27 11:15:53;;;;;;;;;9.00;4.00;;;;;;;;5064721;28;45543;-66
2022/09/27 11:18:31;;;;;;;;;2.67;1.67;;;;;;;;5052814;28;45431;-65
2022/09/27 11:21:02;;;;;;;;;3.33;3.00;;;;;;;;5046161;28;45379;-65
2022/09/27 11:23:50;;;;;;;;;3.33;3.33;;;;;;;;5044886;28;45353;-66
2022/09/27 11:26:21;;;;;;;;;3.00;3.00;;;;;;;;5042133;28;45422;-66
2022/09/27 11:29:06;;;;;;;;;3.33;2.00;;;;;;;;5048702;28;47120;-66
2022/09/27 11:31:47;;;;;;;;;3.33;2.00;;;;;;;;5057353;28;45643;-66
2022/09/27 11:34:25;;;;;;;;;3.00;2.00;;;;;;;;5054318;28;45735;-66
2022/09/27 11:37:19;;;;;;;;;2.00;2.00;;;;;;;;5064236;28;45324;-65
2022/09/27 11:39:55;;;;;;;;;3.33;3.00;;;;;;;;5038630;28;46132;-64
2022/09/27 11:42:40;;;;;;;;;3.33;2.67;;;;;;;;5056037;28;45362;-66
2022/09/27 11:45:19;;;;;;;;;3.33;1.00;;;;;;;;5058234;28;45619;-66
2022/09/27 11:47:59;;;;;;;;;6.00;2.00;;;;;;;;5058087;28;45351;-65
2022/09/27 11:50:24;;;;;;;;;1.00;1.00;;;;;;;;5053077;28;45528;-67
2022/09/27 11:52:57;;;;;;;;;1.67;1.67;;;;;;;;5056899;28;45443;-66
2022/09/27 11:55:28;;;;;;;;;4.67;1.33;;;;;;;;5049949;28;45825;-66
2022/09/27 11:58:04;;;;;;;;;1.67;1.00;;;;;;;;5050800;28;45556;-65
2022/09/27 12:00:39;;;;;;;;;1.00;0.00;;;;;;;;5054988;28;45663;-66
2022/09/27 12:03:21;;;;;;;;;1.00;1.00;;;;;;;;5054344;28;45521;-66
2022/09/27 12:06:01;;;;;;;;;1.00;1.00;;;;;;;;5050567;28;45321;-64
2022/09/27 12:09:02;;;;;;;;;4.00;0.75;;;;;;;;5052078;28;45536;-65
2022/09/27 12:11:31;;;;;;;;;2.00;1.00;;;;;;;;4987697;28;46949;-66
2022/09/27 12:14:16;;;;;;;;;3.00;1.50;;;;;;;;5043226;28;45341;-66
2022/09/27 12:16:43;;;;;;;;;1.67;1.67;;;;;;;;5060229;28;45375;-65
2022/09/27 12:19:17;;;;;;;;;4.00;1.00;;;;;;;;5039455;28;45680;-64
2022/09/27 12:21:42;;;;;;;;;2.33;1.00;;;;;;;;5058009;28;46372;-66
2022/09/27 12:24:14;;;;;;;;;1.67;1.00;;;;;;;;5059648;28;45472;-69
2022/09/27 12:26:41;;;;;;;;;4.33;2.67;;;;;;;;5053739;28;45714;-70
2022/09/27 12:29:25;;;;;;;;;3.67;2.00;;;;;;;;5058188;28;47541;-70
2022/09/27 12:31:56;;;;;;;;;1.00;1.00;;;;;;;;5062810;28;45278;-68
2022/09/27 12:34:26;;;;;;;;;1.25;1.25;;;;;;;;5063504;28;45324;-69
2022/09/27 12:36:58;;;;;;;;;4.00;2.33;;;;;;;;5064323;28;45496;-69
2022/09/27 12:39:40;;;;;;;;;2.00;1.00;;;;;;;;5062744;28;45433;-69
2022/09/27 12:42:12;;;;;;;;;3.00;1.00;;;;;;;;5050981;28;46487;-69
2022/09/27 12:44:38;;;;;;;;;6.00;2.00;;;;;;;;5057143;28;45462;-68
2022/09/27 12:47:20;;;;;;;;;2.33;2.00;;;;;;;;5058367;28;45398;-68
2022/09/27 12:49:45;;;;;;;;;4.00;1.00;;;;;;;;5053838;28;45288;-69
2022/09/27 12:52:13;;;;;;;;;4.00;2.67;;;;;;;;5053147;28;45367;-69
2022/09/27 12:54:38;;;;;;;;;3.00;1.33;;;;;;;;5054882;28;45681;-70
2022/09/27 12:57:22;;;;;;;;;2.67;2.67;;;;;;;;5057983;28;45437;-70
2022/09/27 13:00:07;;;;;;;;;4.67;4.67;;;;;;;;5053701;28;45564;-70
2022/09/27 13:02:32;;;;;;;;;3.00;2.67;;;;;;;;5057888;28;45442;-70
2022/09/27 13:04:57;;;;;;;;;1.33;1.33;;;;;;;;5049952;28;45497;-70
2022/09/27 13:07:26;;;;;;;;;3.00;1.00;;;;;;;;5060470;28;45598;-70
2022/09/27 13:09:51;;;;;;;;;4.00;2.67;;;;;;;;5059692;28;45648;-70
2022/09/27 13:12:19;;;;;;;;;4.00;2.33;;;;;;;;5059866;28;46233;-70
2022/09/27 13:14:57;;;;;;;;;4.33;3.00;;;;;;;;5057549;28;45426;-70
2022/09/27 13:17:39;;;;;;;;;2.33;1.00;;;;;;;;5060332;28;45579;-69
2022/09/27 13:20:23;;;;;;;;;1.67;1.00;;;;;;;;5058605;28;45418;-69
2022/09/27 13:22:49;;;;;;;;;1.67;1.67;;;;;;;;5058797;28;45809;-70
2022/09/27 13:25:33;;;;;;;;;3.00;2.00;;;;;;;;5058357;28;45408;-69
2022/09/27 13:27:58;;;;;;;;;1.33;1.33;;;;;;;;5057154;28;45307;-69
2022/09/27 13:30:27;;;;;;;;;3.00;2.00;;;;;;;;5047848;28;45661;-67
2022/09/27 13:33:12;;;;;;;;;4.33;1.67;;;;;;;;5054618;28;45719;-70
2022/09/27 13:35:38;;;;;;;;;4.67;3.00;;;;;;;;5050332;28;45736;-68
2022/09/27 13:38:04;;;;;;;;;3.67;1.33;;;;;;;;5059262;28;45489;-70
2022/09/27 13:40:35;;;;;;;;;2.00;1.00;;;;;;;;5053675;28;45555;-69
2022/09/27 13:43:06;;;;;;;;;1.00;1.00;;;;;;;;5055524;28;45770;-69
2022/09/27 13:45:40;;;;;;;;;4.00;1.67;;;;;;;;5053077;28;45457;-69
2022/09/27 13:48:13;;;;;;;;;2.00;1.00;;;;;;;;5060119;28;45477;-70
2022/09/27 13:50:46;;;;;;;;;1.00;1.00;;;;;;;;5057956;28;45335;-70
2022/09/27 13:53:26;;;;;;;;;0.67;0.67;;;;;;;;5057559;28;46379;-70
2022/09/27 13:55:52;;;;;;;;;2.00;1.67;;;;;;;;5054877;28;46079;-71
2022/09/27 13:58:17;;;;;;;;;1.00;1.00;;;;;;;;5059440;28;45338;-70
2022/09/27 14:00:44;;;;;;;;;1.25;0.75;;;;;;;;5046631;28;45426;-70
2022/09/27 14:03:28;;;;;;;;;1.00;1.00;;;;;;;;5049140;28;46221;-70
2022/09/27 14:05:56;;;;;;;;;2.00;1.00;;;;;;;;5048584;28;45428;-70
2022/09/27 14:08:44;;;;;;;;;2.33;1.33;;;;;;;;5051935;28;45849;-69
2022/09/27 14:11:12;;;;;;;;;2.67;1.33;;;;;;;;5038431;28;45358;-70
2022/09/27 14:13:37;;;;;;;;;2.00;1.00;;;;;;;;5041674;28;47517;-70
2022/09/27 14:16:04;;;;;;;;;4.00;2.00;;;;;;;;5055949;28;45246;-69
2022/09/27 14:18:29;;;;;;;;;3.00;1.00;;;;;;;;5057667;28;45600;-69
2022/09/27 14:21:08;;;;;;;;;1.00;1.00;;;;;;;;5061890;28;45508;-69
2022/09/27 14:23:33;;;;;;;;;4.00;2.00;;;;;;;;5067748;28;47371;-69
2022/09/27 14:25:58;;;;;;;;;4.00;2.00;;;;;;;;5058665;28;45492;-69
2022/09/27 14:28:25;;;;;;;;;2.00;2.00;;;;;;;;5058316;28;45476;-70
2022/09/27 14:31:03;;;;;;;;;2.00;2.00;;;;;;;;5058916;28;45405;-70
2022/09/27 14:33:30;;;;;;;;;2.67;2.33;;;;;;;;5059057;28;47077;-69
2022/09/27 14:38:40;;;;;;;;;3.00;3.00;;;;;;;;5057997;28;45307;-70
2022/09/27 14:41:06;;;;;;;;;3.00;2.00;;;;;;;;5059775;28;45418;-70
2022/09/27 14:43:33;;;;;;;;;3.67;3.00;;;;;;;;5059494;28;45450;-71
2022/09/27 14:46:00;;;;;;;;;5.00;3.33;;;;;;;;5040069;28;45409;-70
2022/09/27 14:48:31;;;;;;;;;3.67;3.00;;;;;;;;5053419;28;45480;-70
2022/09/27 14:50:59;;;;;;;;;9.00;3.67;;;;;;;;5056474;28;45619;-71
2022/09/27 14:53:27;;;;;;;;;5.67;4.00;;;;;;;;5057921;28;46918;-71
2022/09/27 14:55:53;;;;;;;;;3.67;2.00;;;;;;;;5050015;28;45300;-71
2022/09/27 14:58:19;;;;;;;;;9.33;7.00;;;;;;;;5044293;28;45628;-69
2022/09/27 15:00:45;;;;;;;;;5.67;3.00;;;;;;;;5056868;28;45852;-69
2022/09/27 15:03:17;;;;;;;;;8.33;4.67;;;;;;;;5051620;28;46054;-68
2022/09/27 15:05:43;;;;;;;;;4.00;3.33;;;;;;;;5057758;28;45456;-71
2022/09/27 15:08:10;;;;;;;;;10.00;5.00;;;;;;;;5055872;28;45574;-69
2022/09/27 15:10:36;;;;;;;;;4.67;4.67;;;;;;;;5058556;28;45521;-70
2022/09/27 15:13:03;;;;;;;;;5.67;5.67;;;;;;;;5061479;28;47008;-69
2022/09/27 15:15:31;;;;;;;;;4.67;3.33;;;;;;;;5054858;28;45292;-68
2022/09/27 15:17:58;;;;;;;;;3.00;3.00;;;;;;;;5057939;28;45536;-69
2022/09/27 15:20:33;;;;;;;;;6.00;2.00;;;;;;;;5055249;28;45584;-70
2022/09/27 15:22:59;;;;;;;;;6.00;4.00;;;;;;;;5054779;28;45493;-70
2022/09/27 15:25:33;;;;;;;;;7.33;4.67;;;;;;;;5057053;28;45401;-70
2022/09/27 15:28:10;;;;;;;;;11.67;9.00;;;;;;;;5053946;28;45242;-69
2022/09/27 15:30:46;;;;;;;;;14.00;10.00;;;;;;;;5058305;28;45263;-69
2022/09/27 15:33:22;;;;;;;;;3.33;3.33;;;;;;;;5057887;28;45849;-69
2022/09/27 15:35:52;;;;;;;;;4.33;2.33;;;;;;;;5056238;28;45394;-69
2022/09/27 15:38:20;;;;;;;;;6.33;6.33;;;;;;;;5058716;28;45355;-69
2022/09/27 15:40:48;;;;;;;;;6.33;5.00;;;;;;;;5058603;28;45318;-69
2022/09/27 15:43:19;;;;;;;;;5.00;4.00;;;;;;;;5058186;28;46327;-69
2022/09/27 15:45:51;;;;;;;;;5.67;3.00;;;;;;;;5046913;28;45363;-69
2022/09/27 15:48:18;;;;;;;;;6.00;4.00;;;;;;;;5057167;28;45444;-71
2022/09/27 15:50:45;;;;;;;;;6.00;5.00;;;;;;;;5050913;28;45231;-70
2022/09/27 15:53:11;;;;;;;;;4.67;3.33;;;;;;;;5056059;28;47207;-70
2022/09/27 15:55:43;;;;;;;;;5.00;5.00;;;;;;;;5049887;28;45306;-71
2022/09/27 15:58:15;;;;;;;;;8.33;3.67;;;;;;;;5048523;28;45413;-70
2022/09/27 16:00:50;;;;;;;;;5.00;4.00;;;;;;;;5053996;28;45550;-69
2022/09/27 16:03:15;;;;;;;;;4.33;3.00;;;;;;;;5062021;28;45353;-70
2022/09/27 16:05:42;;;;;;;;;8.00;4.00;;;;;;;;5048881;28;45521;-70
2022/09/27 16:08:08;;;;;;;;;8.67;6.00;;;;;;;;5045535;28;45569;-69
2022/09/27 16:10:38;;;;;;;;;5.00;5.00;;;;;;;;5055199;28;45478;-70
2022/09/27 16:13:03;;;;;;;;;5.67;4.67;;;;;;;;5054404;28;45397;-71
2022/09/27 16:15:29;;;;;;;;;8.33;5.00;;;;;;;;5056878;28;45361;-69
2022/09/27 16:17:55;;;;;;;;;6.00;5.33;;;;;;;;5058693;28;45518;-70
2022/09/27 16:20:23;;;;;;;;;10.00;8.00;;;;;;;;5056627;28;45417;-69
2022/09/27 16:22:49;;;;;;;;;6.67;5.67;;;;;;;;5047394;28;46715;-72
2022/09/27 16:25:14;;;;;;;;;9.67;6.00;;;;;;;;5061082;28;45310;-69
2022/09/27 16:27:39;;;;;;;;;9.00;8.00;;;;;;;;5063652;28;45335;-70
2022/09/27 16:30:05;;;;;;;;;12.00;7.33;;;;;;;;5055124;28;45397;-70
2022/09/27 16:32:30;;;;;;;;;4.67;4.00;;;;;;;;5055622;28;45388;-70
2022/09/27 16:34:56;;;;;;;;;9.67;7.67;;;;;;;;5055678;28;45725;-70
2022/09/27 16:37:21;;;;;;;;;9.00;9.00;;;;;;;;5048271;28;45445;-69
2022/09/27 16:39:46;;;;;;;;;7.00;5.33;;;;;;;;5047906;28;45483;-69
2022/09/27 16:42:13;;;;;;;;;5.67;4.00;;;;;;;;5052749;28;45497;-69
2022/09/27 16:44:38;;;;;;;;;5.67;3.33;;;;;;;;5056859;28;45437;-68
2022/09/27 16:47:03;;;;;;;;;8.33;6.00;;;;;;;;5056888;28;45435;-68
2022/09/27 16:52:14;;;;;;;;;6.00;5.00;;;;;;;;5045736;28;45686;-70
2022/09/27 16:54:40;;;;;;;;;5.00;4.00;;;;;;;;5051737;28;45536;-70
2022/09/27 16:57:05;;;;;;;;;7.00;5.00;;;;;;;;5055536;28;45267;-69
2022/09/27 16:59:31;;;;;;;;;4.00;4.00;;;;;;;;5055748;28;45759;-69
2022/09/27 17:01:56;;;;;;;;;7.33;5.00;;;;;;;;5054859;28;46274;-68
2022/09/27 17:04:22;;;;;;;;;10.33;5.33;;;;;;;;5053332;28;45169;-70
2022/09/27 17:06:47;;;;;;;;;9.00;4.67;;;;;;;;5058223;28;45468;-70
2022/09/27 17:09:12;;;;;;;;;9.33;6.33;;;;;;;;5057721;28;45153;-69
2022/09/27 17:11:37;;;;;;;;;6.00;5.67;;;;;;;;5060147;28;45311;-70
2022/09/27 17:14:02;;;;;;;;;8.00;5.00;;;;;;;;5060102;28;45394;-70
2022/09/27 17:16:28;;;;;;;;;12.33;4.33;;;;;;;;5059711;28;45362;-68
2022/09/27 17:18:53;;;;;;;;;5.33;4.67;;;;;;;;5057180;28;45643;-69
2022/09/27 17:21:19;;;;;;;;;6.00;4.33;;;;;;;;5058186;28;45379;-69
2022/09/27 17:23:44;;;;;;;;;6.67;3.00;;;;;;;;5055326;28;45836;-69
2022/09/27 17:26:17;;;;;;;;;8.00;4.00;;;;;;;;5061141;28;45323;-69
2022/09/27 17:28:42;;;;;;;;;8.67;4.67;;;;;;;;5062877;28;45683;-68
2022/09/27 17:31:09;;;;;;;;;11.33;5.33;;;;;;;;5052473;28;46253;-68
2022/09/27 17:33:43;;;;;;;;;5.33;4.33;;;;;;;;5061581;28;45316;-70
2022/09/27 17:36:10;;;;;;;;;13.00;5.00;;;;;;;;5054441;28;45601;-69
2022/09/27 17:38:36;;;;;;;;;8.67;3.33;;;;;;;;5044061;28;46805;-69
2022/09/27 17:41:02;;;;;;;;;8.33;6.33;;;;;;;;5059441;28;46030;-70
2022/09/27 17:43:30;;;;;;;;;7.33;7.33;;;;;;;;5065039;28;45334;-70
2022/09/27 17:45:59;;;;;;;;;8.00;4.33;;;;;;;;5065214;28;45343;-68
2022/09/27 17:51:10;;;;;;;;;8.67;6.00;;;;;;;;5056562;28;45856;-70
2022/09/27 17:53:36;;;;;;;;;13.00;10.00;;;;;;;;5058315;28;45508;-69
2022/09/27 17:56:01;;;;;;;;;8.33;8.33;;;;;;;;5059649;28;45363;-70
2022/09/27 17:58:26;;;;;;;;;8.33;4.67;;;;;;;;5066845;28;45524;-69
2022/09/27 18:00:51;;;;;;;;;12.67;6.67;;;;;;;;5055215;28;47045;-69
2022/09/27 18:03:16;;;;;;;;;9.67;9.67;;;;;;;;5064286;28;45503;-69
2022/09/27 18:05:42;;;;;;;;;10.33;9.00;;;;;;;;5045769;28;45725;-68
2022/09/27 18:08:07;;;;;;;;;12.67;9.00;;;;;;;;5055150;28;45589;-69
2022/09/27 18:10:33;;;;;;;;;11.67;10.00;;;;;;;;5051272;28;46130;-69
2022/09/27 18:12:58;;;;;;;;;13.67;9.33;;;;;;;;5050728;28;45571;-68
2022/09/27 18:15:25;;;;;;;;;14.00;9.50;;;;;;;;5048167;28;45460;-68
2022/09/27 18:17:50;;;;;;;;;9.67;6.67;;;;;;;;5044944;28;45459;-68
2022/09/27 18:20:16;;;;;;;;;13.00;10.00;;;;;;;;5056196;28;45724;-68
2022/09/27 18:22:41;;;;;;;;;12.00;7.50;;;;;;;;5051922;28;45966;-69
2022/09/27 18:25:06;;;;;;;;;9.33;7.67;;;;;;;;5053958;28;45909;-69
2022/09/27 18:27:33;;;;;;;;;10.33;7.00;;;;;;;;5047129;28;45342;-67
2022/09/27 18:29:58;;;;;;;;;9.00;7.00;;;;;;;;5039836;28;46876;-68
2022/09/27 18:32:24;;;;;;;;;11.67;8.33;;;;;;;;5035665;28;45265;-68
2022/09/27 18:34:49;;;;;;;;;7.33;7.33;;;;;;;;5057207;28;45500;-69
2022/09/27 18:37:14;;;;;;;;;8.33;5.33;;;;;;;;5049752;28;45476;-68
2022/09/27 18:39:39;;;;;;;;;11.33;7.33;;;;;;;;5046504;28;45449;-69
2022/09/27 18:42:05;;;;;;;;;9.00;4.67;;;;;;;;5057978;28;46457;-69
2022/09/27 18:44:30;;;;;;;;;10.33;8.33;;;;;;;;5051797;28;45589;-69
2022/09/27 18:46:56;;;;;;;;;10.33;4.67;;;;;;;;5053899;28;45636;-69
2022/09/27 18:49:22;;;;;;;;;7.00;5.67;;;;;;;;5050670;28;47046;-68
2022/09/27 18:51:48;;;;;;;;;7.33;5.33;;;;;;;;5045932;28;45569;-67
2022/09/27 18:54:13;;;;;;;;;13.67;6.00;;;;;;;;5058850;28;45538;-65
2022/09/27 18:56:39;;;;;;;;;8.50;5.75;;;;;;;;5044413;28;47610;-64
2022/09/27 18:59:08;;;;;;;;;5.33;4.00;;;;;;;;5036024;28;46245;-64
2022/09/27 19:01:35;;;;;;;;;9.00;4.33;;;;;;;;5055216;28;45381;-62
2022/09/27 19:04:00;;;;;;;;;8.00;4.67;;;;;;;;5065828;28;45627;-66
2022/09/27 19:06:26;;;;;;;;;7.67;6.33;;;;;;;;5050984;28;45501;-65
2022/09/27 19:08:57;;;;;;;;;6.00;5.67;;;;;;;;5055829;28;46041;-65
2022/09/27 19:11:22;;;;;;;;;8.00;5.33;;;;;;;;5051448;28;45451;-66
2022/09/27 19:13:52;;;;;;;;;4.33;4.33;;;;;;;;5051765;28;45125;-66
2022/09/27 19:16:19;;;;;;;;;8.33;5.00;;;;;;;;5061108;28;45418;-67
2022/09/27 19:18:45;;;;;;;;;5.00;5.00;;;;;;;;5053927;28;46328;-66
2022/09/27 19:21:11;;;;;;;;;9.00;5.33;;;;;;;;5054550;28;45529;-66
2022/09/27 19:23:37;;;;;;;;;8.67;6.00;;;;;;;;5057624;28;45680;-65
2022/09/27 19:26:03;;;;;;;;;5.33;4.00;;;;;;;;5052193;28;45710;-65
2022/09/27 19:28:32;;;;;;;;;11.33;8.33;;;;;;;;5060379;28;46161;-65
2022/09/27 19:30:57;;;;;;;;;11.67;6.33;;;;;;;;5047310;28;45770;-65